createdAt,value
2023-11-20T00:01:10.201Z,38.78
2023-11-20T00:03:36.870Z,34.25
2023-11-20T00:06:03.659Z,33.80
2023-11-20T00:08:30.122Z,36.05
2023-11-20T00:10:56.554Z,33.78
2023-11-20T00:13:23.002Z,38.88
2023-11-20T00:15:49.965Z,34.85
2023-11-20T00:18:16.530Z,33.17
2023-11-20T00:20:42.973Z,36.47
2023-11-20T00:23:09.452Z,30.83
2023-11-20T00:25:35.948Z,33.33
2023-11-20T00:28:02.401Z,33.67
2023-11-20T00:30:29.010Z,33.90
2023-11-20T00:32:55.609Z,40.33
2023-11-20T00:35:22.214Z,40.60
2023-11-20T00:37:48.659Z,38.63
2023-11-20T00:40:15.277Z,38.03
2023-11-20T00:42:42.167Z,37.58
2023-11-20T00:45:08.870Z,38.03
2023-11-20T00:47:35.332Z,39.08
2023-11-20T00:50:01.787Z,39.17
2023-11-20T00:52:31.081Z,38.22
2023-11-20T00:54:58.478Z,40.92
2023-11-20T00:57:24.974Z,39.28
2023-11-20T00:59:51.454Z,42.13
2023-11-20T01:02:17.950Z,37.90
2023-11-20T01:04:44.399Z,38.45
2023-11-20T01:07:10.935Z,41.50
2023-11-20T01:09:37.424Z,36.97
2023-11-20T01:12:04.255Z,41.33
2023-11-20T01:14:30.781Z,41.05
2023-11-20T01:16:57.557Z,39.08
2023-11-20T01:19:24.052Z,39.80
2023-11-20T01:21:50.644Z,41.78
2023-11-20T01:24:17.111Z,39.00
2023-11-20T01:26:43.570Z,39.83
2023-11-20T01:29:10.020Z,37.38
2023-11-20T01:31:36.541Z,45.15
2023-11-20T01:34:03.102Z,45.08
2023-11-20T01:36:29.673Z,40.85
2023-11-20T01:38:56.159Z,42.30
2023-11-20T01:41:22.689Z,40.90
2023-11-20T01:43:49.151Z,41.55
2023-11-20T01:46:16.586Z,41.97
2023-11-20T01:48:46.164Z,43.60
2023-11-20T01:51:13.466Z,44.92
2023-11-20T01:53:42.536Z,43.83
2023-11-20T01:56:11.933Z,43.13
2023-11-20T01:58:38.557Z,40.50
2023-11-20T02:01:05.746Z,41.97
2023-11-20T02:03:35.765Z,38.75
2023-11-20T02:06:02.331Z,40.80
2023-11-20T02:08:31.617Z,41.55
2023-11-20T02:11:03.137Z,43.78
2023-11-20T02:13:30.991Z,42.40
2023-11-20T02:15:57.704Z,39.13
2023-11-20T02:18:35.320Z,37.40
2023-11-20T02:21:03.064Z,40.78
2023-11-20T02:23:30.116Z,40.00
2023-11-20T02:26:02.735Z,41.83
2023-11-20T02:28:39.059Z,37.92
2023-11-20T02:31:06.001Z,36.85
2023-11-20T02:33:41.328Z,37.38
2023-11-20T02:36:08.142Z,35.85
2023-11-20T02:38:35.089Z,40.15
2023-11-20T02:41:01.745Z,39.63
2023-11-20T02:43:28.417Z,40.90
2023-11-20T02:45:56.730Z,36.80
2023-11-20T02:48:24.263Z,38.85
2023-11-20T02:50:50.772Z,39.92
2023-11-20T02:53:17.289Z,36.53
2023-11-20T02:55:43.764Z,38.33
2023-11-20T02:58:10.321Z,40.17
2023-11-20T03:00:39.201Z,38.28
2023-11-20T03:03:07.468Z,40.65
2023-11-20T03:05:35.752Z,40.97
2023-11-20T03:08:02.608Z,39.58
2023-11-20T03:10:29.153Z,41.85
2023-11-20T03:12:56.111Z,39.30
2023-11-20T03:15:22.729Z,40.03
2023-11-20T03:17:50.406Z,36.33
2023-11-20T03:20:17.345Z,36.40
2023-11-20T03:22:43.864Z,40.00
2023-11-20T03:25:10.627Z,41.05
2023-11-20T03:27:37.151Z,39.65
2023-11-20T03:30:03.982Z,38.53
2023-11-20T03:32:30.485Z,37.15
2023-11-20T03:34:56.938Z,40.88
2023-11-20T03:37:23.384Z,38.88
2023-11-20T03:39:49.866Z,38.55
2023-11-20T03:42:16.422Z,38.17
2023-11-20T03:44:42.857Z,39.30
2023-11-20T03:47:10.378Z,37.13
2023-11-20T03:49:36.825Z,38.70
2023-11-20T03:52:03.955Z,38.20
2023-11-20T03:54:30.431Z,38.60
2023-11-20T03:56:56.889Z,39.67
2023-11-20T03:59:23.346Z,38.83
2023-11-20T04:01:51.274Z,40.65
2023-11-20T04:04:17.897Z,41.40
2023-11-20T04:06:44.862Z,40.08
2023-11-20T04:09:11.460Z,38.50
2023-11-20T04:11:37.957Z,43.42
2023-11-20T04:14:04.886Z,40.17
2023-11-20T04:16:32.050Z,42.38
2023-11-20T04:18:58.922Z,41.78
2023-11-20T04:21:26.567Z,37.72
2023-11-20T04:23:53.403Z,41.33
2023-11-20T04:26:19.928Z,40.80
2023-11-20T04:28:46.594Z,42.58
2023-11-20T04:31:13.075Z,40.50
2023-11-20T04:33:43.822Z,40.95
2023-11-20T04:36:13.719Z,41.60
2023-11-20T04:38:40.890Z,39.30
2023-11-20T04:41:07.393Z,40.10
2023-11-20T04:43:33.887Z,39.15
2023-11-20T04:46:00.669Z,39.20
2023-11-20T04:48:27.167Z,40.15
2023-11-20T04:50:53.771Z,40.95
2023-11-20T04:53:22.090Z,38.33
2023-11-20T04:55:48.592Z,38.60
2023-11-20T04:58:15.100Z,38.50
2023-11-20T05:00:41.685Z,38.17
2023-11-20T05:03:08.503Z,40.72
2023-11-20T05:05:35.063Z,42.70
2023-11-20T05:08:01.772Z,41.17
2023-11-20T05:10:28.223Z,40.63
2023-11-20T05:12:55.694Z,43.13
2023-11-20T05:15:22.233Z,42.45
2023-11-20T05:17:48.761Z,43.08
2023-11-20T05:20:15.282Z,41.90
2023-11-20T05:22:41.834Z,41.55
2023-11-20T05:25:08.784Z,43.20
2023-11-20T05:27:35.296Z,42.40
2023-11-20T05:30:01.845Z,42.53
2023-11-20T05:32:28.325Z,43.13
2023-11-20T05:34:54.825Z,42.90
2023-11-20T05:37:21.442Z,44.13
2023-11-20T05:39:47.920Z,44.65
2023-11-20T05:42:14.406Z,46.40
2023-11-20T05:44:41.009Z,44.85
2023-11-20T05:47:07.560Z,43.40
2023-11-20T05:49:34.021Z,48.53
2023-11-20T05:52:00.594Z,44.22
2023-11-20T05:54:27.100Z,47.22
2023-11-20T05:56:53.578Z,47.28
2023-11-20T05:59:20.034Z,49.13
2023-11-20T06:01:46.548Z,45.63
2023-11-20T06:04:15.606Z,47.55
2023-11-20T06:06:42.196Z,44.65
2023-11-20T06:09:11.535Z,48.85
2023-11-20T06:11:38.174Z,49.70
2023-11-20T06:14:04.677Z,47.22
2023-11-20T06:16:31.314Z,47.20
2023-11-20T06:18:57.889Z,48.13
2023-11-20T06:21:24.431Z,49.95
2023-11-20T06:23:51.110Z,49.42
2023-11-20T06:26:17.661Z,44.17
2023-11-20T06:28:46.026Z,49.60
2023-11-20T06:31:12.747Z,49.00
2023-11-20T06:33:39.615Z,47.53
2023-11-20T06:36:08.022Z,53.25
2023-11-20T06:38:36.257Z,60.72
2023-11-20T06:41:03.971Z,57.45
2023-11-20T06:43:31.387Z,52.35
2023-11-20T06:45:58.411Z,55.72
2023-11-20T06:48:24.961Z,51.47
2023-11-20T06:50:51.393Z,50.92
2023-11-20T06:53:17.847Z,51.13
2023-11-20T06:55:44.309Z,50.22
2023-11-20T06:58:11.299Z,54.05
2023-11-20T07:00:40.686Z,47.90
2023-11-20T07:03:07.325Z,51.25
2023-11-20T07:05:36.173Z,52.55
2023-11-20T07:08:07.941Z,47.42
2023-11-20T07:10:34.394Z,53.17
2023-11-20T07:13:00.898Z,51.38
2023-11-20T07:15:27.364Z,51.70
2023-11-20T07:17:54.018Z,47.97
2023-11-20T07:20:21.499Z,48.45
2023-11-20T07:22:48.022Z,50.80
2023-11-20T07:25:14.634Z,45.72
2023-11-20T07:27:41.198Z,51.28
2023-11-20T07:30:08.270Z,48.80
2023-11-20T07:32:36.443Z,48.80
2023-11-20T07:35:06.668Z,50.63
2023-11-20T07:37:33.616Z,49.55
2023-11-20T07:40:08.764Z,52.88
2023-11-20T07:42:35.406Z,49.13
2023-11-20T07:45:02.016Z,50.50
2023-11-20T07:47:28.601Z,47.88
2023-11-20T07:49:55.645Z,52.00
2023-11-20T07:52:22.527Z,48.20
2023-11-20T07:54:49.065Z,48.92
2023-11-20T07:57:17.625Z,57.00
2023-11-20T07:59:44.054Z,49.53
2023-11-20T08:02:10.490Z,45.08
2023-11-20T08:04:37.162Z,48.47
2023-11-20T08:07:04.482Z,46.70
2023-11-20T08:09:31.034Z,46.30
2023-11-20T08:11:57.631Z,47.92
2023-11-20T08:14:24.424Z,46.50
2023-11-20T08:16:50.887Z,47.15
2023-11-20T08:19:17.956Z,46.67
2023-11-20T08:21:44.597Z,45.63
2023-11-20T08:24:12.912Z,44.60
2023-11-20T08:26:39.901Z,48.92
2023-11-20T08:29:07.994Z,44.67
2023-11-20T08:31:34.806Z,47.85
2023-11-20T08:34:01.433Z,43.97
2023-11-20T08:36:27.948Z,45.15
2023-11-20T08:38:54.434Z,47.97
2023-11-20T08:41:21.020Z,42.35
2023-11-20T08:43:47.561Z,43.03
2023-11-20T08:46:16.034Z,45.38
2023-11-20T08:48:43.336Z,43.55
2023-11-20T08:51:10.047Z,47.25
2023-11-20T08:53:36.901Z,45.75
2023-11-20T08:56:04.030Z,46.17
2023-11-20T08:58:30.551Z,44.35
2023-11-20T09:00:57.083Z,72.47
2023-11-20T09:03:23.683Z,75.47
2023-11-20T09:05:50.199Z,47.92
2023-11-20T09:08:16.666Z,47.08
2023-11-20T09:10:43.131Z,101.30
2023-11-20T09:13:11.199Z,91.95
2023-11-20T09:15:38.341Z,46.35
2023-11-20T09:18:05.740Z,47.75
2023-11-20T09:20:32.262Z,46.65
2023-11-20T09:22:58.805Z,44.70
2023-11-20T09:25:25.876Z,84.53
2023-11-20T09:27:52.407Z,53.60
2023-11-20T09:30:19.040Z,48.13
2023-11-20T09:32:48.180Z,47.58
2023-11-20T09:35:17.367Z,46.22
2023-11-20T09:37:44.047Z,53.92
2023-11-20T09:40:12.550Z,51.78
2023-11-20T09:42:41.077Z,46.72
2023-11-20T09:45:17.219Z,45.75
2023-11-20T09:47:47.113Z,44.28
2023-11-20T09:50:13.761Z,46.53
2023-11-20T09:52:42.773Z,44.38
2023-11-20T09:55:09.596Z,45.33
2023-11-20T09:57:36.160Z,48.33
2023-11-20T10:00:04.396Z,49.03
2023-11-20T10:02:32.256Z,46.28
2023-11-20T10:05:00.055Z,52.50
2023-11-20T10:07:32.504Z,51.47
2023-11-20T10:09:59.139Z,49.65
2023-11-20T10:12:28.002Z,49.67
2023-11-20T10:14:54.973Z,51.85
2023-11-20T10:17:23.200Z,50.83
2023-11-20T10:19:49.780Z,47.70
2023-11-20T10:22:20.899Z,48.25
2023-11-20T10:24:49.739Z,49.63
2023-11-20T10:27:18.400Z,48.03
2023-11-20T10:29:44.861Z,44.65
2023-11-20T10:32:13.099Z,48.80
2023-11-20T10:34:39.668Z,47.17
2023-11-20T10:37:10.064Z,46.35
2023-11-20T10:39:37.185Z,44.70
2023-11-20T10:42:04.996Z,46.90
2023-11-20T10:44:36.593Z,48.08
2023-11-20T10:47:06.181Z,43.55
2023-11-20T10:49:35.273Z,48.17
2023-11-20T10:52:07.262Z,44.75
2023-11-20T10:54:49.404Z,48.08
2023-11-20T10:57:19.481Z,47.65
2023-11-20T10:59:47.303Z,43.95
2023-11-20T11:02:19.979Z,48.40
2023-11-20T11:04:47.916Z,47.70
2023-11-20T11:07:17.658Z,45.90
2023-11-20T11:09:45.567Z,47.60
2023-11-20T11:12:13.305Z,44.05
2023-11-20T11:14:41.655Z,45.35
2023-11-20T11:17:14.700Z,45.38
2023-11-20T11:19:49.647Z,44.85
2023-11-20T11:22:37.163Z,44.55
2023-11-20T11:25:11.608Z,46.72
2023-11-20T11:27:43.728Z,46.17
2023-11-20T11:30:12.000Z,45.67
2023-11-20T11:33:25.997Z,44.63
2023-11-20T11:36:11.222Z,45.13
2023-11-20T11:38:53.419Z,44.17
2023-11-20T11:41:40.779Z,41.50
2023-11-20T11:44:16.165Z,44.30
2023-11-20T11:46:44.706Z,40.92
2023-11-20T11:49:18.928Z,43.80
2023-11-20T11:51:47.040Z,46.38
2023-11-20T11:54:18.147Z,45.35
2023-11-20T11:57:08.666Z,42.10
2023-11-20T11:59:43.501Z,44.33
2023-11-20T12:02:13.720Z,44.85
2023-11-20T12:04:58.663Z,44.40
2023-11-20T12:07:50.792Z,45.42
2023-11-20T12:10:43.218Z,45.92
2023-11-20T12:13:11.776Z,43.42
2023-11-20T12:15:40.958Z,41.67
2023-11-20T12:18:12.230Z,41.88
2023-11-20T12:23:39.520Z,39.45
2023-11-20T12:26:11.397Z,43.40
2023-11-20T12:28:39.427Z,44.35
2023-11-20T12:31:07.691Z,44.88
2023-11-20T12:33:36.363Z,46.22
2023-11-20T12:36:03.245Z,46.10
2023-11-20T12:38:33.595Z,44.72
2023-11-20T12:41:04.551Z,54.22
2023-11-20T12:43:32.649Z,48.90
2023-11-20T12:46:00.553Z,47.83
2023-11-20T12:48:31.047Z,48.65
2023-11-20T12:50:57.926Z,46.63
2023-11-20T12:53:24.534Z,46.35
2023-11-20T12:55:54.407Z,45.78
2023-11-20T12:58:21.472Z,48.00
2023-11-20T13:00:48.862Z,45.63
2023-11-20T13:03:20.444Z,45.22
2023-11-20T13:05:51.845Z,47.53
2023-11-20T13:10:55.701Z,47.25
2023-11-20T13:13:28.391Z,47.85
2023-11-20T13:16:00.022Z,47.00
2023-11-20T13:18:31.104Z,48.08
2023-11-20T13:20:58.014Z,52.85
2023-11-20T13:23:34.864Z,47.80
2023-11-20T13:26:09.665Z,48.78
2023-11-20T13:28:37.935Z,46.72
2023-11-20T13:31:10.009Z,45.47
2023-11-20T13:33:39.598Z,45.63
2023-11-20T13:36:06.693Z,44.60
2023-11-20T13:38:34.451Z,45.40
2023-11-20T13:41:01.929Z,47.15
2023-11-20T13:43:28.892Z,45.25
2023-11-20T13:46:00.638Z,43.47
2023-11-20T13:48:28.742Z,45.30
2023-11-20T13:50:56.320Z,44.95
2023-11-20T13:53:24.320Z,44.67
2023-11-20T13:55:52.887Z,45.47
2023-11-20T13:58:25.572Z,44.67
2023-11-20T14:00:58.804Z,45.90
2023-11-20T14:03:26.970Z,47.15
2023-11-20T14:05:54.937Z,46.13
2023-11-20T14:08:21.724Z,46.72
2023-11-20T14:10:49.481Z,45.92
2023-11-20T14:13:16.628Z,44.58
2023-11-20T14:15:43.432Z,50.33
2023-11-20T14:18:10.725Z,47.00
2023-11-20T14:20:37.413Z,46.47
2023-11-20T14:23:04.960Z,48.80
2023-11-20T14:25:34.117Z,44.00
2023-11-20T14:28:01.530Z,48.33
2023-11-20T14:30:28.193Z,48.78
2023-11-20T14:32:56.473Z,46.95
2023-11-20T14:35:23.089Z,49.40
2023-11-20T14:37:50.027Z,53.33
2023-11-20T14:40:18.508Z,48.75
2023-11-20T14:42:47.198Z,50.35
2023-11-20T14:45:15.945Z,50.00
2023-11-20T14:47:43.805Z,47.53
2023-11-20T14:50:12.528Z,50.38
2023-11-20T14:52:44.399Z,46.85
2023-11-20T14:55:11.835Z,50.65
2023-11-20T14:57:40.532Z,48.50
2023-11-20T15:00:08.480Z,49.50
2023-11-20T15:02:35.348Z,49.88
2023-11-20T15:05:01.982Z,48.85
2023-11-20T15:07:28.563Z,48.72
2023-11-20T15:09:55.088Z,51.28
2023-11-20T15:12:24.475Z,49.15
2023-11-20T15:14:52.378Z,47.10
2023-11-20T15:17:19.471Z,50.42
2023-11-20T15:19:45.960Z,49.80
2023-11-20T15:22:12.584Z,48.83
2023-11-20T15:24:39.157Z,47.88
2023-11-20T15:27:05.907Z,50.03
2023-11-20T15:29:32.853Z,50.88
2023-11-20T15:31:59.438Z,51.35
2023-11-20T15:34:26.064Z,49.25
2023-11-20T15:36:53.832Z,51.75
2023-11-20T15:39:21.139Z,54.38
2023-11-20T15:41:49.406Z,52.33
2023-11-20T15:44:17.817Z,50.15
2023-11-20T15:46:46.616Z,49.40
2023-11-20T15:49:15.417Z,52.13
2023-11-20T15:51:45.346Z,52.30
2023-11-20T15:54:17.697Z,53.45
2023-11-20T15:56:48.752Z,54.00
2023-11-20T15:59:17.439Z,51.72
2023-11-20T16:01:49.053Z,54.13
2023-11-20T16:04:16.037Z,51.20
2023-11-20T16:06:43.422Z,55.15
2023-11-20T16:09:09.903Z,55.10
2023-11-20T16:11:36.368Z,59.08
2023-11-20T16:14:03.244Z,59.85
2023-11-20T16:16:32.730Z,56.45
2023-11-20T16:18:59.295Z,61.58
2023-11-20T16:21:25.837Z,59.45
2023-11-20T16:23:52.321Z,60.05
2023-11-20T16:26:20.343Z,64.65
2023-11-20T16:28:47.601Z,68.07
2023-11-20T16:31:14.461Z,66.05
2023-11-20T16:33:41.497Z,65.18
2023-11-20T16:36:08.578Z,67.80
2023-11-20T16:38:35.046Z,62.75
2023-11-20T16:41:01.907Z,64.05
2023-11-20T16:43:29.724Z,64.55
2023-11-20T16:45:56.356Z,59.13
2023-11-20T16:48:23.614Z,61.55
2023-11-20T16:50:50.073Z,58.92
2023-11-20T16:53:16.769Z,55.85
2023-11-20T16:55:43.707Z,58.28
2023-11-20T16:58:10.320Z,59.88
2023-11-20T17:00:37.324Z,59.55
2023-11-20T17:03:04.286Z,53.78
2023-11-20T17:05:32.362Z,59.03
2023-11-20T17:07:58.950Z,57.67
2023-11-20T17:10:25.457Z,67.32
2023-11-20T17:12:51.947Z,61.03
2023-11-20T17:15:18.826Z,63.20
2023-11-20T17:17:45.360Z,58.92
2023-11-20T17:20:12.700Z,60.50
2023-11-20T17:22:39.489Z,56.72
2023-11-20T17:25:07.689Z,58.80
2023-11-20T17:27:34.274Z,59.92
2023-11-20T17:30:02.217Z,58.30
2023-11-20T17:32:29.043Z,54.67
2023-11-20T17:34:55.743Z,58.50
2023-11-20T17:37:22.370Z,57.35
2023-11-20T17:39:52.243Z,59.42
2023-11-20T17:42:18.696Z,55.25
2023-11-20T17:44:45.564Z,61.88
2023-11-20T17:47:12.249Z,51.28
2023-11-20T17:49:38.837Z,58.53
2023-11-20T17:52:05.492Z,59.85
2023-11-20T17:54:34.052Z,60.45
2023-11-20T17:57:00.630Z,58.88
2023-11-20T17:59:27.119Z,58.10
2023-11-20T18:01:53.786Z,62.17
2023-11-20T18:04:20.664Z,60.15
2023-11-20T18:06:51.149Z,61.20
2023-11-20T18:09:21.577Z,64.72
2023-11-20T18:11:50.899Z,61.97
2023-11-20T18:14:18.336Z,60.60
2023-11-20T18:16:45.394Z,58.38
2023-11-20T18:19:11.922Z,59.55
2023-11-20T18:21:46.032Z,61.47
2023-11-20T18:24:18.380Z,61.72
2023-11-20T18:26:46.024Z,58.55
2023-11-20T18:29:14.130Z,60.15
2023-11-20T18:31:40.685Z,59.83
2023-11-20T18:34:08.939Z,59.58
2023-11-20T18:36:35.512Z,56.08
2023-11-20T18:39:02.003Z,58.05
2023-11-20T18:41:31.198Z,59.00
2023-11-20T18:43:57.996Z,60.28
2023-11-20T18:46:24.578Z,57.78
2023-11-20T18:48:52.195Z,55.42
2023-11-20T18:51:18.650Z,53.33
2023-11-20T18:53:49.024Z,54.08
2023-11-20T18:56:15.508Z,55.17
2023-11-20T18:58:42.137Z,52.47
2023-11-20T19:01:08.714Z,52.78
2023-11-20T19:03:35.406Z,51.13
2023-11-20T19:06:01.916Z,55.45
2023-11-20T19:08:28.550Z,47.40
2023-11-20T19:10:56.169Z,50.38
2023-11-20T19:13:23.869Z,52.95
2023-11-20T19:15:50.571Z,50.63
2023-11-20T19:18:17.203Z,49.40
2023-11-20T19:20:43.764Z,49.95
2023-11-20T19:23:10.199Z,53.58
2023-11-20T19:25:36.828Z,49.92
2023-11-20T19:28:03.458Z,52.22
2023-11-20T19:30:29.946Z,50.53
2023-11-20T19:32:56.464Z,50.90
2023-11-20T19:35:24.031Z,47.88
2023-11-20T19:37:50.899Z,47.65
2023-11-20T19:40:19.024Z,48.28
2023-11-20T19:42:45.604Z,46.83
2023-11-20T19:45:12.196Z,49.83
2023-11-20T19:47:38.821Z,50.67
2023-11-20T19:50:07.230Z,44.88
2023-11-20T19:52:33.753Z,47.22
2023-11-20T19:55:00.255Z,50.10
2023-11-20T19:57:27.235Z,46.88
2023-11-20T19:59:53.697Z,45.63
2023-11-20T20:02:21.775Z,48.03
2023-11-20T20:04:52.650Z,47.08
2023-11-20T20:07:21.611Z,42.95
2023-11-20T20:09:48.116Z,45.35
2023-11-20T20:12:14.674Z,44.55
2023-11-20T20:14:42.466Z,46.50
2023-11-20T20:17:10.886Z,44.75
2023-11-20T20:19:44.777Z,44.78
2023-11-20T20:22:16.009Z,44.72
2023-11-20T20:24:43.197Z,46.47
2023-11-20T20:27:10.122Z,39.40
2023-11-20T20:29:37.502Z,41.65
2023-11-20T20:32:04.963Z,42.33
2023-11-20T20:34:32.128Z,43.00
2023-11-20T20:36:59.233Z,42.15
2023-11-20T20:39:26.111Z,42.67
2023-11-20T20:41:54.151Z,45.95
2023-11-20T20:44:21.005Z,40.47
2023-11-20T20:46:49.222Z,44.67
2023-11-20T20:49:16.827Z,42.97
2023-11-20T20:51:46.928Z,45.25
2023-11-20T20:54:13.997Z,44.67
2023-11-20T20:56:45.732Z,44.33
2023-11-20T20:59:14.168Z,39.22
2023-11-20T21:01:40.724Z,43.13
2023-11-20T21:04:07.295Z,45.03
2023-11-20T21:06:35.305Z,43.03
2023-11-20T21:09:01.849Z,42.30
2023-11-20T21:11:30.790Z,40.90
2023-11-20T21:13:57.363Z,42.08
2023-11-20T21:16:24.072Z,44.03
2023-11-20T21:18:50.684Z,43.53
2023-11-20T21:21:17.521Z,41.72
2023-11-20T21:23:44.243Z,42.17
2023-11-20T21:26:14.598Z,43.78
2023-11-20T21:28:41.605Z,41.25
2023-11-20T21:31:09.095Z,41.13
2023-11-20T21:33:35.880Z,44.13
2023-11-20T21:36:03.334Z,41.55
2023-11-20T21:38:30.553Z,41.72
2023-11-20T21:40:57.497Z,46.70
2023-11-20T21:43:24.410Z,44.72
2023-11-20T21:45:52.355Z,44.42
2023-11-20T21:48:19.311Z,45.35
2023-11-20T21:50:45.823Z,41.85
2023-11-20T21:53:13.138Z,44.13
2023-11-20T21:55:39.765Z,43.95
2023-11-20T21:58:06.326Z,46.88
2023-11-20T22:00:32.803Z,47.03
2023-11-20T22:02:59.327Z,47.38
2023-11-20T22:05:26.428Z,47.17
2023-11-20T22:07:53.110Z,47.30
2023-11-20T22:10:22.044Z,51.45
2023-11-20T22:12:49.299Z,51.53
2023-11-20T22:15:16.002Z,50.03
2023-11-20T22:17:42.615Z,50.05
2023-11-20T22:20:12.678Z,50.70
2023-11-20T22:22:39.600Z,51.13
2023-11-20T22:25:06.351Z,50.60
2023-11-20T22:27:33.168Z,46.92
2023-11-20T22:30:00.057Z,49.30
2023-11-20T22:32:26.759Z,48.17
2023-11-20T22:35:09.591Z,48.35
2023-11-20T22:37:39.783Z,51.25
2023-11-20T22:40:09.007Z,49.00
2023-11-20T22:42:35.752Z,47.92
2023-11-20T22:45:02.340Z,47.08
2023-11-20T22:47:28.933Z,48.42
2023-11-20T22:49:55.487Z,46.17
2023-11-20T22:52:22.022Z,45.95
2023-11-20T22:54:48.491Z,45.78
2023-11-20T22:57:14.962Z,44.88
2023-11-20T22:59:42.082Z,47.13
2023-11-20T23:02:08.690Z,46.38
2023-11-20T23:04:35.278Z,49.17
2023-11-20T23:07:01.768Z,47.97
2023-11-20T23:09:28.211Z,43.63
2023-11-20T23:11:54.750Z,46.63
2023-11-20T23:14:21.243Z,47.85
2023-11-20T23:16:47.766Z,48.38
2023-11-20T23:19:14.261Z,46.05
2023-11-20T23:21:41.120Z,49.80
2023-11-20T23:24:09.769Z,45.65
2023-11-20T23:26:36.345Z,47.63
2023-11-20T23:29:07.095Z,44.45
2023-11-20T23:31:38.200Z,44.25
2023-11-20T23:34:06.155Z,50.30
2023-11-20T23:36:33.169Z,45.35
2023-11-20T23:39:00.367Z,47.80
2023-11-20T23:41:27.488Z,46.42
2023-11-20T23:43:54.909Z,44.45
2023-11-20T23:46:21.966Z,40.72
2023-11-20T23:48:51.309Z,43.28
2023-11-20T23:51:18.043Z,44.42
2023-11-20T23:53:44.491Z,46.45
2023-11-20T23:56:10.979Z,43.67
2023-11-20T23:58:37.499Z,46.20
